sensor_id;sensor_type;location;lat;lon;timestamp;P1;durP1;ratioP1;P2;durP2;ratioP2
5694;SDS011;2872;48.874;9.358;2023-04-25T00:02:23;2.90;;;1.70;;
5694;SDS011;2872;48.874;9.358;2023-04-25T00:04:55;2.60;;;1.30;;
5694;SDS011;2872;48.874;9.358;2023-04-25T00:07:31;1.90;;;1.25;;
5694;SDS011;2872;48.874;9.358;2023-04-25T00:09:58;2.72;;;1.63;;
5694;SDS011;2872;48.874;9.358;2023-04-25T00:12:30;1.90;;;1.70;;
5694;SDS011;2872;48.874;9.358;2023-04-25T00:14:58;3.60;;;1.90;;
5694;SDS011;2872;48.874;9.358;2023-04-25T00:17:31;3.53;;;2.10;;
5694;SDS011;2872;48.874;9.358;2023-04-25T00:19:58;4.70;;;2.10;;
5694;SDS011;2872;48.874;9.358;2023-04-25T00:22:25;3.67;;;2.40;;
5694;SDS011;2872;48.874;9.358;2023-04-25T00:24:57;4.65;;;2.30;;
5694;SDS011;2872;48.874;9.358;2023-04-25T00:27:35;3.60;;;1.92;;
5694;SDS011;2872;48.874;9.358;2023-04-25T00:30:08;4.00;;;1.80;;
5694;SDS011;2872;48.874;9.358;2023-04-25T00:32:41;3.93;;;1.90;;
5694;SDS011;2872;48.874;9.358;2023-04-25T00:35:08;3.97;;;2.72;;
5694;SDS011;2872;48.874;9.358;2023-04-25T00:37:35;4.10;;;1.65;;
5694;SDS011;2872;48.874;9.358;2023-04-25T00:40:04;3.17;;;1.80;;
5694;SDS011;2872;48.874;9.358;2023-04-25T00:42:33;5.90;;;1.80;;
5694;SDS011;2872;48.874;9.358;2023-04-25T00:45:04;2.80;;;2.00;;
5694;SDS011;2872;48.874;9.358;2023-04-25T00:47:33;5.07;;;1.90;;
5694;SDS011;2872;48.874;9.358;2023-04-25T00:50:00;7.38;;;1.67;;
5694;SDS011;2872;48.874;9.358;2023-04-25T00:52:35;5.45;;;2.10;;
5694;SDS011;2872;48.874;9.358;2023-04-25T00:55:08;1.97;;;1.80;;
5694;SDS011;2872;48.874;9.358;2023-04-25T00:57:37;3.45;;;1.92;;
5694;SDS011;2872;48.874;9.358;2023-04-25T01:00:07;7.80;;;2.22;;
5694;SDS011;2872;48.874;9.358;2023-04-25T01:02:36;2.93;;;1.60;;
5694;SDS011;2872;48.874;9.358;2023-04-25T01:05:09;4.00;;;1.63;;
5694;SDS011;2872;48.874;9.358;2023-04-25T01:07:40;3.75;;;1.90;;
5694;SDS011;2872;48.874;9.358;2023-04-25T01:10:07;4.88;;;2.40;;
5694;SDS011;2872;48.874;9.358;2023-04-25T01:12:35;7.97;;;1.90;;
5694;SDS011;2872;48.874;9.358;2023-04-25T01:15:08;4.28;;;2.00;;
5694;SDS011;2872;48.874;9.358;2023-04-25T01:17:35;6.07;;;2.10;;
5694;SDS011;2872;48.874;9.358;2023-04-25T01:20:05;5.40;;;1.90;;
5694;SDS011;2872;48.874;9.358;2023-04-25T01:22:35;2.50;;;1.52;;
5694;SDS011;2872;48.874;9.358;2023-04-25T01:25:05;2.35;;;1.50;;
5694;SDS011;2872;48.874;9.358;2023-04-25T01:27:33;5.97;;;2.35;;
5694;SDS011;2872;48.874;9.358;2023-04-25T01:30:00;4.25;;;1.90;;
5694;SDS011;2872;48.874;9.358;2023-04-25T01:32:30;2.10;;;1.00;;
5694;SDS011;2872;48.874;9.358;2023-04-25T01:35:06;2.40;;;1.67;;
5694;SDS011;2872;48.874;9.358;2023-04-25T01:37:36;2.70;;;1.40;;
5694;SDS011;2872;48.874;9.358;2023-04-25T01:40:03;2.80;;;2.00;;
5694;SDS011;2872;48.874;9.358;2023-04-25T01:42:31;3.42;;;1.48;;
5694;SDS011;2872;48.874;9.358;2023-04-25T01:44:58;1.50;;;1.20;;
5694;SDS011;2872;48.874;9.358;2023-04-25T01:47:25;4.10;;;1.50;;
5694;SDS011;2872;48.874;9.358;2023-04-25T01:49:54;3.58;;;1.90;;
5694;SDS011;2872;48.874;9.358;2023-04-25T01:52:21;4.65;;;2.22;;
5694;SDS011;2872;48.874;9.358;2023-04-25T01:54:49;2.13;;;1.40;;
5694;SDS011;2872;48.874;9.358;2023-04-25T01:57:19;8.07;;;2.33;;
5694;SDS011;2872;48.874;9.358;2023-04-25T01:59:46;7.27;;;2.10;;
5694;SDS011;2872;48.874;9.358;2023-04-25T02:02:13;4.13;;;1.40;;
5694;SDS011;2872;48.874;9.358;2023-04-25T02:04:41;5.07;;;1.70;;
5694;SDS011;2872;48.874;9.358;2023-04-25T02:07:08;3.65;;;1.50;;
5694;SDS011;2872;48.874;9.358;2023-04-25T02:09:34;2.72;;;1.52;;
5694;SDS011;2872;48.874;9.358;2023-04-25T02:12:03;3.83;;;1.40;;
5694;SDS011;2872;48.874;9.358;2023-04-25T02:14:30;3.80;;;1.20;;
5694;SDS011;2872;48.874;9.358;2023-04-25T02:16:58;2.00;;;1.35;;
5694;SDS011;2872;48.874;9.358;2023-04-25T02:19:26;2.47;;;1.60;;
5694;SDS011;2872;48.874;9.358;2023-04-25T02:21:54;3.05;;;1.40;;
5694;SDS011;2872;48.874;9.358;2023-04-25T02:24:22;2.80;;;1.40;;
5694;SDS011;2872;48.874;9.358;2023-04-25T02:26:48;2.80;;;1.50;;
5694;SDS011;2872;48.874;9.358;2023-04-25T02:29:17;2.50;;;1.50;;
5694;SDS011;2872;48.874;9.358;2023-04-25T02:31:46;2.97;;;1.30;;
5694;SDS011;2872;48.874;9.358;2023-04-25T02:34:13;2.53;;;1.35;;
5694;SDS011;2872;48.874;9.358;2023-04-25T02:36:40;3.22;;;1.20;;
5694;SDS011;2872;48.874;9.358;2023-04-25T02:39:06;2.17;;;1.42;;
5694;SDS011;2872;48.874;9.358;2023-04-25T02:41:33;1.58;;;1.40;;
5694;SDS011;2872;48.874;9.358;2023-04-25T02:44:03;1.70;;;1.40;;
5694;SDS011;2872;48.874;9.358;2023-04-25T02:46:31;4.50;;;1.60;;
5694;SDS011;2872;48.874;9.358;2023-04-25T02:48:57;3.42;;;1.80;;
5694;SDS011;2872;48.874;9.358;2023-04-25T02:51:24;1.88;;;1.42;;
5694;SDS011;2872;48.874;9.358;2023-04-25T02:53:57;4.90;;;2.30;;
5694;SDS011;2872;48.874;9.358;2023-04-25T02:56:23;2.57;;;1.70;;
5694;SDS011;2872;48.874;9.358;2023-04-25T02:58:51;3.80;;;1.75;;
5694;SDS011;2872;48.874;9.358;2023-04-25T03:01:23;4.03;;;2.10;;
5694;SDS011;2872;48.874;9.358;2023-04-25T03:03:51;2.40;;;1.70;;
5694;SDS011;2872;48.874;9.358;2023-04-25T03:06:24;3.60;;;2.00;;
5694;SDS011;2872;48.874;9.358;2023-04-25T03:08:50;4.80;;;1.67;;
5694;SDS011;2872;48.874;9.358;2023-04-25T03:11:20;4.07;;;2.30;;
5694;SDS011;2872;48.874;9.358;2023-04-25T03:13:47;4.38;;;1.90;;
5694;SDS011;2872;48.874;9.358;2023-04-25T03:16:13;3.90;;;1.98;;
5694;SDS011;2872;48.874;9.358;2023-04-25T03:18:43;4.63;;;2.00;;
5694;SDS011;2872;48.874;9.358;2023-04-25T03:21:14;2.63;;;1.80;;
5694;SDS011;2872;48.874;9.358;2023-04-25T03:23:41;5.80;;;2.10;;
5694;SDS011;2872;48.874;9.358;2023-04-25T03:26:13;2.40;;;1.67;;
5694;SDS011;2872;48.874;9.358;2023-04-25T03:28:42;2.00;;;1.70;;
5694;SDS011;2872;48.874;9.358;2023-04-25T03:31:12;2.50;;;1.60;;
5694;SDS011;2872;48.874;9.358;2023-04-25T03:33:38;4.00;;;2.00;;
5694;SDS011;2872;48.874;9.358;2023-04-25T03:36:05;4.65;;;1.70;;
5694;SDS011;2872;48.874;9.358;2023-04-25T03:38:37;2.33;;;1.80;;
5694;SDS011;2872;48.874;9.358;2023-04-25T03:41:03;3.40;;;1.98;;
5694;SDS011;2872;48.874;9.358;2023-04-25T03:43:30;3.25;;;1.67;;
5694;SDS011;2872;48.874;9.358;2023-04-25T03:46:00;4.20;;;2.17;;
5694;SDS011;2872;48.874;9.358;2023-04-25T03:48:28;5.18;;;1.70;;
5694;SDS011;2872;48.874;9.358;2023-04-25T03:50:54;3.03;;;1.60;;
5694;SDS011;2872;48.874;9.358;2023-04-25T03:53:24;2.65;;;1.48;;
5694;SDS011;2872;48.874;9.358;2023-04-25T03:55:52;2.90;;;1.93;;
5694;SDS011;2872;48.874;9.358;2023-04-25T03:58:18;3.28;;;1.80;;
5694;SDS011;2872;48.874;9.358;2023-04-25T04:00:48;3.28;;;1.80;;
5694;SDS011;2872;48.874;9.358;2023-04-25T04:03:15;1.70;;;1.40;;
5694;SDS011;2872;48.874;9.358;2023-04-25T04:05:41;2.72;;;2.00;;
5694;SDS011;2872;48.874;9.358;2023-04-25T04:08:08;5.30;;;2.03;;
5694;SDS011;2872;48.874;9.358;2023-04-25T04:10:40;3.22;;;2.03;;
5694;SDS011;2872;48.874;9.358;2023-04-25T04:13:08;4.50;;;2.07;;
5694;SDS011;2872;48.874;9.358;2023-04-25T04:15:40;2.42;;;1.80;;
5694;SDS011;2872;48.874;9.358;2023-04-25T04:18:07;2.50;;;2.30;;
5694;SDS011;2872;48.874;9.358;2023-04-25T04:20:40;2.43;;;2.13;;
5694;SDS011;2872;48.874;9.358;2023-04-25T04:23:06;2.58;;;1.90;;
5694;SDS011;2872;48.874;9.358;2023-04-25T04:25:33;5.75;;;2.20;;
5694;SDS011;2872;48.874;9.358;2023-04-25T04:28:03;2.70;;;2.10;;
5694;SDS011;2872;48.874;9.358;2023-04-25T04:30:32;5.80;;;2.30;;
5694;SDS011;2872;48.874;9.358;2023-04-25T04:33:04;3.17;;;2.45;;
5694;SDS011;2872;48.874;9.358;2023-04-25T04:35:30;4.88;;;2.30;;
5694;SDS011;2872;48.874;9.358;2023-04-25T04:37:57;2.30;;;2.10;;
5694;SDS011;2872;48.874;9.358;2023-04-25T04:40:30;2.90;;;2.50;;
5694;SDS011;2872;48.874;9.358;2023-04-25T04:42:57;3.70;;;2.50;;
5694;SDS011;2872;48.874;9.358;2023-04-25T04:45:23;5.15;;;2.80;;
5694;SDS011;2872;48.874;9.358;2023-04-25T04:47:58;2.83;;;2.50;;
5694;SDS011;2872;48.874;9.358;2023-04-25T04:50:24;2.50;;;2.30;;
5694;SDS011;2872;48.874;9.358;2023-04-25T04:52:51;3.42;;;2.60;;
5694;SDS011;2872;48.874;9.358;2023-04-25T04:55:24;6.15;;;2.60;;
5694;SDS011;2872;48.874;9.358;2023-04-25T04:57:51;6.00;;;3.15;;
5694;SDS011;2872;48.874;9.358;2023-04-25T05:00:17;3.50;;;2.88;;
5694;SDS011;2872;48.874;9.358;2023-04-25T05:02:48;5.05;;;3.00;;
5694;SDS011;2872;48.874;9.358;2023-04-25T05:05:16;2.72;;;2.30;;
5694;SDS011;2872;48.874;9.358;2023-04-25T05:07:42;3.40;;;2.85;;
5694;SDS011;2872;48.874;9.358;2023-04-25T05:10:12;4.05;;;2.90;;
5694;SDS011;2872;48.874;9.358;2023-04-25T05:12:39;7.80;;;3.60;;
5694;SDS011;2872;48.874;9.358;2023-04-25T05:15:06;4.68;;;3.40;;
5694;SDS011;2872;48.874;9.358;2023-04-25T05:17:36;4.13;;;2.47;;
5694;SDS011;2872;48.874;9.358;2023-04-25T05:20:05;6.38;;;3.05;;
5694;SDS011;2872;48.874;9.358;2023-04-25T05:22:34;3.55;;;2.42;;
5694;SDS011;2872;48.874;9.358;2023-04-25T05:25:07;3.90;;;3.00;;
5694;SDS011;2872;48.874;9.358;2023-04-25T05:27:34;4.43;;;3.00;;
5694;SDS011;2872;48.874;9.358;2023-04-25T05:30:01;5.35;;;2.72;;
5694;SDS011;2872;48.874;9.358;2023-04-25T05:32:34;4.18;;;2.70;;
5694;SDS011;2872;48.874;9.358;2023-04-25T05:35:00;3.40;;;2.50;;
5694;SDS011;2872;48.874;9.358;2023-04-25T05:37:28;7.75;;;3.10;;
5694;SDS011;2872;48.874;9.358;2023-04-25T05:39:57;5.28;;;3.40;;
5694;SDS011;2872;48.874;9.358;2023-04-25T05:42:24;5.10;;;3.13;;
5694;SDS011;2872;48.874;9.358;2023-04-25T05:44:50;5.15;;;3.28;;
5694;SDS011;2872;48.874;9.358;2023-04-25T05:47:21;3.43;;;3.00;;
5694;SDS011;2872;48.874;9.358;2023-04-25T05:49:47;4.93;;;3.50;;
5694;SDS011;2872;48.874;9.358;2023-04-25T05:52:14;4.55;;;3.08;;
5694;SDS011;2872;48.874;9.358;2023-04-25T05:54:41;6.65;;;3.30;;
5694;SDS011;2872;48.874;9.358;2023-04-25T05:57:14;3.72;;;2.90;;
5694;SDS011;2872;48.874;9.358;2023-04-25T05:59:45;3.75;;;2.80;;
5694;SDS011;2872;48.874;9.358;2023-04-25T06:02:12;4.80;;;3.47;;
5694;SDS011;2872;48.874;9.358;2023-04-25T06:04:41;4.20;;;3.10;;
5694;SDS011;2872;48.874;9.358;2023-04-25T06:07:08;4.28;;;3.30;;
5694;SDS011;2872;48.874;9.358;2023-04-25T06:09:35;10.10;;;5.97;;
5694;SDS011;2872;48.874;9.358;2023-04-25T06:12:01;14.48;;;6.35;;
5694;SDS011;2872;48.874;9.358;2023-04-25T06:14:29;4.95;;;3.80;;
5694;SDS011;2872;48.874;9.358;2023-04-25T06:16:58;4.75;;;3.90;;
5694;SDS011;2872;48.874;9.358;2023-04-25T06:19:32;6.10;;;3.30;;
5694;SDS011;2872;48.874;9.358;2023-04-25T06:22:00;7.60;;;4.00;;
5694;SDS011;2872;48.874;9.358;2023-04-25T06:24:28;6.07;;;3.70;;
5694;SDS011;2872;48.874;9.358;2023-04-25T06:26:55;6.88;;;3.95;;
5694;SDS011;2872;48.874;9.358;2023-04-25T06:29:22;5.90;;;3.40;;
5694;SDS011;2872;48.874;9.358;2023-04-25T06:31:49;6.22;;;3.70;;
5694;SDS011;2872;48.874;9.358;2023-04-25T06:34:19;4.40;;;4.00;;
5694;SDS011;2872;48.874;9.358;2023-04-25T06:36:46;4.43;;;4.03;;
5694;SDS011;2872;48.874;9.358;2023-04-25T06:39:12;5.32;;;3.40;;
5694;SDS011;2872;48.874;9.358;2023-04-25T06:41:39;5.35;;;3.60;;
5694;SDS011;2872;48.874;9.358;2023-04-25T06:44:11;4.93;;;3.40;;
5694;SDS011;2872;48.874;9.358;2023-04-25T06:46:41;3.30;;;3.00;;
5694;SDS011;2872;48.874;9.358;2023-04-25T06:49:10;3.10;;;2.80;;
5694;SDS011;2872;48.874;9.358;2023-04-25T06:51:37;4.32;;;2.70;;
5694;SDS011;2872;48.874;9.358;2023-04-25T06:54:07;4.32;;;2.60;;
5694;SDS011;2872;48.874;9.358;2023-04-25T06:56:33;3.58;;;3.13;;
5694;SDS011;2872;48.874;9.358;2023-04-25T06:59:00;2.75;;;2.55;;
5694;SDS011;2872;48.874;9.358;2023-04-25T07:01:27;2.95;;;2.38;;
5694;SDS011;2872;48.874;9.358;2023-04-25T07:03:53;4.43;;;2.20;;
5694;SDS011;2872;48.874;9.358;2023-04-25T07:06:21;3.17;;;2.88;;
5694;SDS011;2872;48.874;9.358;2023-04-25T07:08:54;7.03;;;2.70;;
5694;SDS011;2872;48.874;9.358;2023-04-25T07:11:21;2.40;;;2.20;;
5694;SDS011;2872;48.874;9.358;2023-04-25T07:13:48;2.50;;;2.30;;
5694;SDS011;2872;48.874;9.358;2023-04-25T07:16:20;29.65;;;14.38;;
5694;SDS011;2872;48.874;9.358;2023-04-25T07:18:47;15.63;;;4.43;;
5694;SDS011;2872;48.874;9.358;2023-04-25T07:21:14;7.38;;;3.40;;
5694;SDS011;2872;48.874;9.358;2023-04-25T07:23:42;6.90;;;3.10;;
5694;SDS011;2872;48.874;9.358;2023-04-25T07:26:08;6.97;;;3.00;;
5694;SDS011;2872;48.874;9.358;2023-04-25T07:28:35;5.95;;;2.75;;
5694;SDS011;2872;48.874;9.358;2023-04-25T07:31:02;3.95;;;2.75;;
5694;SDS011;2872;48.874;9.358;2023-04-25T07:33:28;7.35;;;3.45;;
5694;SDS011;2872;48.874;9.358;2023-04-25T07:35:55;4.00;;;2.80;;
5694;SDS011;2872;48.874;9.358;2023-04-25T07:38:22;3.83;;;3.00;;
5694;SDS011;2872;48.874;9.358;2023-04-25T07:40:50;3.05;;;2.75;;
5694;SDS011;2872;48.874;9.358;2023-04-25T07:43:17;5.00;;;2.88;;
5694;SDS011;2872;48.874;9.358;2023-04-25T07:45:43;6.07;;;3.40;;
5694;SDS011;2872;48.874;9.358;2023-04-25T07:48:10;5.68;;;3.58;;
5694;SDS011;2872;48.874;9.358;2023-04-25T07:50:37;4.40;;;3.20;;
5694;SDS011;2872;48.874;9.358;2023-04-25T07:53:06;3.90;;;3.25;;
5694;SDS011;2872;48.874;9.358;2023-04-25T07:55:33;5.20;;;3.43;;
5694;SDS011;2872;48.874;9.358;2023-04-25T07:58:02;8.77;;;3.30;;
5694;SDS011;2872;48.874;9.358;2023-04-25T08:00:29;6.10;;;3.70;;
5694;SDS011;2872;48.874;9.358;2023-04-25T08:02:56;3.67;;;3.10;;
5694;SDS011;2872;48.874;9.358;2023-04-25T08:05:22;6.95;;;3.10;;
5694;SDS011;2872;48.874;9.358;2023-04-25T08:07:49;4.85;;;3.38;;
5694;SDS011;2872;48.874;9.358;2023-04-25T08:10:16;4.70;;;3.28;;
5694;SDS011;2872;48.874;9.358;2023-04-25T08:12:42;4.32;;;3.85;;
5694;SDS011;2872;48.874;9.358;2023-04-25T08:15:11;5.53;;;3.65;;
5694;SDS011;2872;48.874;9.358;2023-04-25T08:17:38;6.32;;;3.92;;
5694;SDS011;2872;48.874;9.358;2023-04-25T08:20:05;15.68;;;7.85;;
5694;SDS011;2872;48.874;9.358;2023-04-25T08:22:34;32.95;;;16.48;;
5694;SDS011;2872;48.874;9.358;2023-04-25T08:25:00;8.27;;;5.30;;
5694;SDS011;2872;48.874;9.358;2023-04-25T08:27:27;6.28;;;4.50;;
5694;SDS011;2872;48.874;9.358;2023-04-25T08:29:53;6.32;;;4.63;;
5694;SDS011;2872;48.874;9.358;2023-04-25T08:32:21;9.18;;;4.70;;
5694;SDS011;2872;48.874;9.358;2023-04-25T08:34:48;7.25;;;5.35;;
5694;SDS011;2872;48.874;9.358;2023-04-25T08:37:16;5.32;;;4.20;;
5694;SDS011;2872;48.874;9.358;2023-04-25T08:39:44;6.40;;;5.25;;
5694;SDS011;2872;48.874;9.358;2023-04-25T08:42:12;7.93;;;5.07;;
5694;SDS011;2872;48.874;9.358;2023-04-25T08:44:38;5.82;;;3.90;;
5694;SDS011;2872;48.874;9.358;2023-04-25T08:47:05;5.50;;;4.45;;
5694;SDS011;2872;48.874;9.358;2023-04-25T08:49:33;4.38;;;3.85;;
5694;SDS011;2872;48.874;9.358;2023-04-25T08:52:01;4.57;;;3.92;;
5694;SDS011;2872;48.874;9.358;2023-04-25T08:54:30;4.80;;;4.00;;
5694;SDS011;2872;48.874;9.358;2023-04-25T08:56:57;4.77;;;3.90;;
5694;SDS011;2872;48.874;9.358;2023-04-25T08:59:29;6.60;;;4.38;;
5694;SDS011;2872;48.874;9.358;2023-04-25T09:01:55;7.68;;;5.15;;
5694;SDS011;2872;48.874;9.358;2023-04-25T09:04:23;46.00;;;22.13;;
5694;SDS011;2872;48.874;9.358;2023-04-25T09:06:51;14.60;;;8.17;;
5694;SDS011;2872;48.874;9.358;2023-04-25T09:09:17;8.85;;;5.57;;
5694;SDS011;2872;48.874;9.358;2023-04-25T09:11:44;6.50;;;4.93;;
5694;SDS011;2872;48.874;9.358;2023-04-25T09:14:11;6.93;;;5.53;;
5694;SDS011;2872;48.874;9.358;2023-04-25T09:19:24;9.50;;;6.32;;
5694;SDS011;2872;48.874;9.358;2023-04-25T09:21:54;10.35;;;6.45;;
5694;SDS011;2872;48.874;9.358;2023-04-25T09:24:29;8.35;;;4.72;;
5694;SDS011;2872;48.874;9.358;2023-04-25T09:26:57;8.48;;;5.50;;
5694;SDS011;2872;48.874;9.358;2023-04-25T09:29:28;8.48;;;5.85;;
5694;SDS011;2872;48.874;9.358;2023-04-25T09:32:06;9.02;;;5.30;;
5694;SDS011;2872;48.874;9.358;2023-04-25T09:34:38;7.18;;;5.20;;
5694;SDS011;2872;48.874;9.358;2023-04-25T09:37:07;11.02;;;5.10;;
5694;SDS011;2872;48.874;9.358;2023-04-25T09:39:35;9.32;;;5.50;;
5694;SDS011;2872;48.874;9.358;2023-04-25T09:42:02;11.70;;;6.85;;
5694;SDS011;2872;48.874;9.358;2023-04-25T09:44:29;10.68;;;5.82;;
5694;SDS011;2872;48.874;9.358;2023-04-25T09:46:55;8.48;;;5.43;;
5694;SDS011;2872;48.874;9.358;2023-04-25T09:49:22;8.80;;;4.93;;
5694;SDS011;2872;48.874;9.358;2023-04-25T09:51:55;7.00;;;5.28;;
5694;SDS011;2872;48.874;9.358;2023-04-25T09:54:24;8.30;;;5.20;;
5694;SDS011;2872;48.874;9.358;2023-04-25T09:56:54;14.82;;;8.43;;
5694;SDS011;2872;48.874;9.358;2023-04-25T09:59:21;10.00;;;6.75;;
5694;SDS011;2872;48.874;9.358;2023-04-25T10:01:48;8.35;;;5.90;;
5694;SDS011;2872;48.874;9.358;2023-04-25T10:04:17;11.95;;;6.40;;
5694;SDS011;2872;48.874;9.358;2023-04-25T10:06:45;11.02;;;4.90;;
5694;SDS011;2872;48.874;9.358;2023-04-25T10:09:15;9.68;;;5.43;;
5694;SDS011;2872;48.874;9.358;2023-04-25T10:11:44;5.22;;;4.40;;
5694;SDS011;2872;48.874;9.358;2023-04-25T10:14:12;4.82;;;4.10;;
5694;SDS011;2872;48.874;9.358;2023-04-25T10:16:39;4.50;;;3.78;;
5694;SDS011;2872;48.874;9.358;2023-04-25T10:19:06;5.78;;;4.50;;
5694;SDS011;2872;48.874;9.358;2023-04-25T10:21:33;4.88;;;4.25;;
5694;SDS011;2872;48.874;9.358;2023-04-25T10:24:01;7.97;;;5.40;;
5694;SDS011;2872;48.874;9.358;2023-04-25T10:26:28;8.73;;;5.13;;
5694;SDS011;2872;48.874;9.358;2023-04-25T10:28:58;7.63;;;4.53;;
5694;SDS011;2872;48.874;9.358;2023-04-25T10:31:26;21.58;;;9.48;;
5694;SDS011;2872;48.874;9.358;2023-04-25T10:33:53;7.10;;;5.80;;
5694;SDS011;2872;48.874;9.358;2023-04-25T10:36:20;5.50;;;4.90;;
5694;SDS011;2872;48.874;9.358;2023-04-25T10:38:48;6.18;;;4.95;;
5694;SDS011;2872;48.874;9.358;2023-04-25T10:41:17;4.93;;;4.30;;
5694;SDS011;2872;48.874;9.358;2023-04-25T10:43:45;6.45;;;4.05;;
5694;SDS011;2872;48.874;9.358;2023-04-25T10:46:14;5.70;;;4.40;;
5694;SDS011;2872;48.874;9.358;2023-04-25T10:48:45;4.95;;;4.43;;
5694;SDS011;2872;48.874;9.358;2023-04-25T10:51:16;12.32;;;5.35;;
5694;SDS011;2872;48.874;9.358;2023-04-25T10:53:44;8.65;;;5.18;;
5694;SDS011;2872;48.874;9.358;2023-04-25T10:56:22;5.95;;;4.20;;
5694;SDS011;2872;48.874;9.358;2023-04-25T10:58:49;6.07;;;4.00;;
5694;SDS011;2872;48.874;9.358;2023-04-25T11:01:19;4.95;;;3.80;;
5694;SDS011;2872;48.874;9.358;2023-04-25T11:03:47;4.90;;;3.80;;
5694;SDS011;2872;48.874;9.358;2023-04-25T11:06:18;5.95;;;4.45;;
5694;SDS011;2872;48.874;9.358;2023-04-25T11:08:49;5.57;;;4.60;;
5694;SDS011;2872;48.874;9.358;2023-04-25T11:11:16;9.55;;;5.32;;
5694;SDS011;2872;48.874;9.358;2023-04-25T11:13:44;10.20;;;5.40;;
5694;SDS011;2872;48.874;9.358;2023-04-25T11:16:13;5.95;;;4.55;;
5694;SDS011;2872;48.874;9.358;2023-04-25T11:18:42;6.50;;;5.03;;
5694;SDS011;2872;48.874;9.358;2023-04-25T11:21:09;6.45;;;4.25;;
5694;SDS011;2872;48.874;9.358;2023-04-25T11:23:36;6.45;;;4.78;;
5694;SDS011;2872;48.874;9.358;2023-04-25T11:26:03;8.48;;;5.28;;
5694;SDS011;2872;48.874;9.358;2023-04-25T11:28:30;9.57;;;6.00;;
5694;SDS011;2872;48.874;9.358;2023-04-25T11:30:57;7.82;;;5.53;;
5694;SDS011;2872;48.874;9.358;2023-04-25T11:33:23;6.38;;;4.85;;
5694;SDS011;2872;48.874;9.358;2023-04-25T11:35:52;7.70;;;4.60;;
5694;SDS011;2872;48.874;9.358;2023-04-25T11:38:19;7.57;;;4.72;;
5694;SDS011;2872;48.874;9.358;2023-04-25T11:40:49;8.53;;;4.90;;
5694;SDS011;2872;48.874;9.358;2023-04-25T11:43:16;7.57;;;4.70;;
5694;SDS011;2872;48.874;9.358;2023-04-25T11:45:45;7.75;;;4.10;;
5694;SDS011;2872;48.874;9.358;2023-04-25T11:48:12;5.53;;;4.20;;
5694;SDS011;2872;48.874;9.358;2023-04-25T11:50:39;9.52;;;6.50;;
5694;SDS011;2872;48.874;9.358;2023-04-25T11:53:07;3.28;;;2.83;;
5694;SDS011;2872;48.874;9.358;2023-04-25T11:55:33;2.90;;;2.70;;
5694;SDS011;2872;48.874;9.358;2023-04-25T11:58:01;4.57;;;2.70;;
5694;SDS011;2872;48.874;9.358;2023-04-25T12:00:29;2.75;;;2.55;;
5694;SDS011;2872;48.874;9.358;2023-04-25T12:02:57;3.90;;;3.00;;
5694;SDS011;2872;48.874;9.358;2023-04-25T12:05:24;2.90;;;2.70;;
5694;SDS011;2872;48.874;9.358;2023-04-25T12:07:52;4.53;;;3.13;;
5694;SDS011;2872;48.874;9.358;2023-04-25T12:10:20;4.17;;;3.13;;
5694;SDS011;2872;48.874;9.358;2023-04-25T12:12:47;2.70;;;2.50;;
5694;SDS011;2872;48.874;9.358;2023-04-25T12:15:15;4.32;;;3.30;;
5694;SDS011;2872;48.874;9.358;2023-04-25T12:17:44;4.20;;;2.80;;
5694;SDS011;2872;48.874;9.358;2023-04-25T12:20:12;3.10;;;2.63;;
5694;SDS011;2872;48.874;9.358;2023-04-25T12:22:40;3.15;;;2.90;;
5694;SDS011;2872;48.874;9.358;2023-04-25T12:25:09;4.43;;;3.33;;
5694;SDS011;2872;48.874;9.358;2023-04-25T12:27:38;3.83;;;3.43;;
5694;SDS011;2872;48.874;9.358;2023-04-25T12:30:07;3.75;;;3.40;;
5694;SDS011;2872;48.874;9.358;2023-04-25T12:32:35;4.40;;;3.55;;
5694;SDS011;2872;48.874;9.358;2023-04-25T12:35:03;3.70;;;3.30;;
5694;SDS011;2872;48.874;9.358;2023-04-25T12:37:30;3.70;;;3.20;;
5694;SDS011;2872;48.874;9.358;2023-04-25T12:39:57;4.85;;;3.65;;
5694;SDS011;2872;48.874;9.358;2023-04-25T12:42:23;3.67;;;3.20;;
5694;SDS011;2872;48.874;9.358;2023-04-25T12:44:51;3.60;;;3.00;;
5694;SDS011;2872;48.874;9.358;2023-04-25T12:47:18;5.55;;;4.00;;
5694;SDS011;2872;48.874;9.358;2023-04-25T12:49:45;7.43;;;4.38;;
5694;SDS011;2872;48.874;9.358;2023-04-25T12:52:11;6.95;;;4.43;;
5694;SDS011;2872;48.874;9.358;2023-04-25T12:54:38;7.80;;;3.83;;
5694;SDS011;2872;48.874;9.358;2023-04-25T12:57:05;5.85;;;4.30;;
5694;SDS011;2872;48.874;9.358;2023-04-25T12:59:32;6.53;;;4.28;;
5694;SDS011;2872;48.874;9.358;2023-04-25T13:01:59;6.82;;;4.32;;
5694;SDS011;2872;48.874;9.358;2023-04-25T13:04:27;8.57;;;4.47;;
5694;SDS011;2872;48.874;9.358;2023-04-25T13:06:53;7.40;;;4.60;;
5694;SDS011;2872;48.874;9.358;2023-04-25T13:09:20;9.35;;;4.65;;
5694;SDS011;2872;48.874;9.358;2023-04-25T13:11:46;6.05;;;4.35;;
5694;SDS011;2872;48.874;9.358;2023-04-25T13:14:13;6.60;;;4.78;;
5694;SDS011;2872;48.874;9.358;2023-04-25T13:16:40;7.82;;;4.05;;
5694;SDS011;2872;48.874;9.358;2023-04-25T13:19:08;5.00;;;4.50;;
5694;SDS011;2872;48.874;9.358;2023-04-25T13:21:36;7.40;;;4.70;;
5694;SDS011;2872;48.874;9.358;2023-04-25T13:24:03;8.57;;;4.60;;
5694;SDS011;2872;48.874;9.358;2023-04-25T13:26:30;7.78;;;4.40;;
5694;SDS011;2872;48.874;9.358;2023-04-25T13:28:57;8.32;;;5.10;;
5694;SDS011;2872;48.874;9.358;2023-04-25T13:31:25;9.57;;;5.03;;
5694;SDS011;2872;48.874;9.358;2023-04-25T13:33:52;9.48;;;5.25;;
5694;SDS011;2872;48.874;9.358;2023-04-25T13:36:20;9.45;;;5.03;;
5694;SDS011;2872;48.874;9.358;2023-04-25T13:38:46;10.98;;;5.22;;
5694;SDS011;2872;48.874;9.358;2023-04-25T13:41:14;9.57;;;5.18;;
5694;SDS011;2872;48.874;9.358;2023-04-25T13:43:43;8.20;;;5.50;;
5694;SDS011;2872;48.874;9.358;2023-04-25T13:46:12;9.90;;;6.30;;
5694;SDS011;2872;48.874;9.358;2023-04-25T13:48:40;11.23;;;6.10;;
5694;SDS011;2872;48.874;9.358;2023-04-25T13:51:11;10.15;;;6.00;;
5694;SDS011;2872;48.874;9.358;2023-04-25T13:53:44;10.85;;;6.70;;
5694;SDS011;2872;48.874;9.358;2023-04-25T13:56:11;15.52;;;6.75;;
5694;SDS011;2872;48.874;9.358;2023-04-25T13:58:44;12.60;;;6.97;;
5694;SDS011;2872;48.874;9.358;2023-04-25T14:01:10;14.32;;;7.30;;
5694;SDS011;2872;48.874;9.358;2023-04-25T14:03:37;11.30;;;6.78;;
5694;SDS011;2872;48.874;9.358;2023-04-25T14:06:11;20.45;;;10.20;;
5694;SDS011;2872;48.874;9.358;2023-04-25T14:08:41;11.30;;;7.28;;
5694;SDS011;2872;48.874;9.358;2023-04-25T14:11:09;9.73;;;6.35;;
5694;SDS011;2872;48.874;9.358;2023-04-25T14:13:36;25.30;;;13.13;;
5694;SDS011;2872;48.874;9.358;2023-04-25T14:16:05;13.32;;;7.15;;
5694;SDS011;2872;48.874;9.358;2023-04-25T14:18:32;15.48;;;7.72;;
5694;SDS011;2872;48.874;9.358;2023-04-25T14:20:58;12.98;;;6.95;;
5694;SDS011;2872;48.874;9.358;2023-04-25T14:23:25;12.75;;;6.32;;
5694;SDS011;2872;48.874;9.358;2023-04-25T14:25:53;11.77;;;7.00;;
5694;SDS011;2872;48.874;9.358;2023-04-25T14:28:21;19.52;;;8.57;;
5694;SDS011;2872;48.874;9.358;2023-04-25T14:30:48;10.80;;;7.20;;
5694;SDS011;2872;48.874;9.358;2023-04-25T14:33:18;11.35;;;5.90;;
5694;SDS011;2872;48.874;9.358;2023-04-25T14:35:44;10.82;;;6.85;;
5694;SDS011;2872;48.874;9.358;2023-04-25T14:38:11;10.30;;;5.70;;
5694;SDS011;2872;48.874;9.358;2023-04-25T14:40:37;9.43;;;5.50;;
5694;SDS011;2872;48.874;9.358;2023-04-25T14:43:07;11.18;;;5.40;;
5694;SDS011;2872;48.874;9.358;2023-04-25T14:45:35;11.15;;;5.90;;
5694;SDS011;2872;48.874;9.358;2023-04-25T14:48:01;12.50;;;6.05;;
5694;SDS011;2872;48.874;9.358;2023-04-25T14:50:31;14.40;;;6.63;;
5694;SDS011;2872;48.874;9.358;2023-04-25T14:52:58;10.77;;;6.03;;
5694;SDS011;2872;48.874;9.358;2023-04-25T14:55:25;10.55;;;5.53;;
5694;SDS011;2872;48.874;9.358;2023-04-25T14:57:55;9.45;;;5.28;;
5694;SDS011;2872;48.874;9.358;2023-04-25T15:00:21;10.90;;;5.40;;
5694;SDS011;2872;48.874;9.358;2023-04-25T15:02:49;9.13;;;5.70;;
5694;SDS011;2872;48.874;9.358;2023-04-25T15:05:19;11.63;;;5.00;;
5694;SDS011;2872;48.874;9.358;2023-04-25T15:07:45;11.25;;;5.68;;
5694;SDS011;2872;48.874;9.358;2023-04-25T15:10:12;9.13;;;4.78;;
5694;SDS011;2872;48.874;9.358;2023-04-25T15:12:44;11.00;;;5.65;;
5694;SDS011;2872;48.874;9.358;2023-04-25T15:15:10;11.70;;;5.50;;
5694;SDS011;2872;48.874;9.358;2023-04-25T15:17:37;7.55;;;4.72;;
5694;SDS011;2872;48.874;9.358;2023-04-25T15:20:09;9.90;;;4.90;;
5694;SDS011;2872;48.874;9.358;2023-04-25T15:22:36;11.80;;;5.50;;